createdAt,value
2022-10-17T00:01:31.376Z,98973.97
2022-10-17T00:03:36.615Z,98973.19
2022-10-17T00:05:45.129Z,98977.94
2022-10-17T00:07:49.910Z,98982.41
2022-10-17T00:09:54.637Z,98980.75
2022-10-17T00:11:59.380Z,98980.81
2022-10-17T00:14:04.742Z,98981.66
2022-10-17T00:16:09.822Z,98976.56
2022-10-17T00:18:14.638Z,98981.97
2022-10-17T00:20:19.870Z,98994.22
2022-10-17T00:22:27.079Z,98977.84
2022-10-17T00:24:33.523Z,98987.50
2022-10-17T00:26:38.343Z,98982.31
2022-10-17T00:28:43.280Z,98993.06
2022-10-17T00:30:48.774Z,98992.97
2022-10-17T00:32:53.547Z,98986.03
2022-10-17T00:34:58.325Z,98980.00
2022-10-17T00:37:03.183Z,98991.47
2022-10-17T00:39:10.724Z,98997.72
2022-10-17T00:41:20.719Z,98999.66
2022-10-17T00:43:27.359Z,98997.09
2022-10-17T00:45:33.633Z,98999.66
2022-10-17T00:47:39.538Z,99000.50
2022-10-17T00:49:44.379Z,99004.97
2022-10-17T00:51:53.587Z,98999.72
2022-10-17T00:53:58.635Z,98997.88
2022-10-17T00:56:05.913Z,98998.22
2022-10-17T00:58:11.477Z,98994.81
2022-10-17T01:00:18.928Z,99000.00
2022-10-17T01:02:25.161Z,99004.19
2022-10-17T01:04:30.560Z,99000.91
2022-10-17T01:06:35.284Z,99001.91
2022-10-17T01:08:40.481Z,99002.00
2022-10-17T01:10:56.177Z,98999.38
2022-10-17T01:13:13.140Z,99001.22
2022-10-17T01:15:32.071Z,99009.25
2022-10-17T01:17:48.398Z,99003.16
2022-10-17T01:20:15.552Z,99007.56
2022-10-17T01:22:26.308Z,99020.69
2022-10-17T01:24:50.900Z,99014.59
2022-10-17T01:27:06.916Z,99017.22
2022-10-17T01:29:40.887Z,99010.34
2022-10-17T01:31:50.635Z,99017.34
2022-10-17T01:34:05.305Z,99016.66
2022-10-17T01:36:14.806Z,99015.03
2022-10-17T01:38:24.610Z,99013.28
2022-10-17T01:40:36.368Z,99020.38
2022-10-17T01:42:47.053Z,99022.00
2022-10-17T01:44:58.860Z,99013.34
2022-10-17T01:47:08.821Z,99014.34
2022-10-17T01:49:15.928Z,99009.94
2022-10-17T01:51:26.865Z,99016.06
2022-10-17T01:53:34.725Z,99011.56
2022-10-17T01:55:43.284Z,99014.97
2022-10-17T01:57:52.728Z,99011.66
2022-10-17T01:59:58.933Z,99012.56
2022-10-17T02:02:07.806Z,99003.97
2022-10-17T02:04:14.122Z,99004.09
2022-10-17T02:06:20.989Z,98998.88
2022-10-17T02:08:42.648Z,98999.91
2022-10-17T02:10:54.962Z,98990.56
2022-10-17T02:13:07.668Z,98989.88
2022-10-17T02:15:32.594Z,98987.31
2022-10-17T02:17:48.127Z,98989.34
2022-10-17T02:20:01.707Z,98987.78
2022-10-17T02:22:17.573Z,98984.41
2022-10-17T02:24:32.302Z,98992.34
2022-10-17T02:26:41.632Z,98988.03
2022-10-17T02:28:53.939Z,98987.19
2022-10-17T02:31:06.553Z,98985.56
2022-10-17T02:33:19.927Z,98985.56
2022-10-17T02:35:26.807Z,98986.63
2022-10-17T02:37:33.815Z,98986.56
2022-10-17T02:39:42.875Z,98984.84
2022-10-17T02:41:52.141Z,98978.84
2022-10-17T02:44:00.115Z,98989.25
2022-10-17T02:46:08.093Z,98991.84
2022-10-17T02:48:22.726Z,99003.97
2022-10-17T02:50:36.148Z,98993.47
2022-10-17T02:52:48.858Z,98993.56
2022-10-17T02:54:57.163Z,98993.72
2022-10-17T02:57:05.764Z,98991.16
2022-10-17T02:59:15.157Z,98998.19
2022-10-17T03:01:22.658Z,99001.75
2022-10-17T03:03:32.551Z,99007.00
2022-10-17T03:05:40.159Z,99001.88
2022-10-17T03:07:44.876Z,99008.06
2022-10-17T03:09:51.061Z,99009.00
2022-10-17T03:11:56.090Z,99015.06
2022-10-17T03:14:01.065Z,99012.50
2022-10-17T03:16:06.499Z,99011.75
2022-10-17T03:18:11.361Z,99019.94
2022-10-17T03:20:18.922Z,99019.22
2022-10-17T03:22:24.051Z,99020.28
2022-10-17T03:24:31.974Z,99020.59
2022-10-17T03:26:36.853Z,99026.72
2022-10-17T03:28:41.723Z,99021.88
2022-10-17T03:30:46.502Z,99020.94
2022-10-17T03:32:53.471Z,99015.78
2022-10-17T03:34:58.396Z,99019.25
2022-10-17T03:37:05.797Z,99022.66
2022-10-17T03:39:12.467Z,99021.78
2022-10-17T03:41:17.390Z,99023.50
2022-10-17T03:43:22.382Z,99022.56
2022-10-17T03:45:27.316Z,99028.66
2022-10-17T03:47:32.718Z,99030.44
2022-10-17T03:49:37.756Z,99034.00
2022-10-17T03:51:43.611Z,99037.59
2022-10-17T03:53:55.260Z,99034.44
2022-10-17T03:56:00.800Z,99028.47
2022-10-17T03:58:06.146Z,99036.25
2022-10-17T04:00:13.063Z,99035.28
2022-10-17T04:02:20.823Z,99039.66
2022-10-17T04:04:25.902Z,99037.94
2022-10-17T04:06:30.818Z,99037.91
2022-10-17T04:08:36.690Z,99043.03
2022-10-17T04:10:48.588Z,99043.97
2022-10-17T04:12:53.445Z,99045.75
2022-10-17T04:14:58.677Z,99043.19
2022-10-17T04:17:04.088Z,99051.91
2022-10-17T04:19:09.982Z,99057.22
2022-10-17T04:21:19.297Z,99050.31
2022-10-17T04:23:26.569Z,99056.53
2022-10-17T04:25:37.661Z,99055.66
2022-10-17T04:27:45.022Z,99055.78
2022-10-17T04:29:51.587Z,99060.28
2022-10-17T04:32:02.512Z,99062.13
2022-10-17T04:34:17.198Z,99057.81
2022-10-17T04:36:28.099Z,99060.56
2022-10-17T04:38:33.166Z,99062.25
2022-10-17T04:40:39.112Z,99055.53
2022-10-17T04:42:46.658Z,99062.53
2022-10-17T04:44:56.549Z,99058.19
2022-10-17T04:47:04.576Z,99062.59
2022-10-17T04:49:09.973Z,99069.69
2022-10-17T04:51:21.813Z,99063.56
2022-10-17T04:53:48.399Z,99066.41
2022-10-17T04:55:53.574Z,99065.53
2022-10-17T04:58:02.222Z,99069.91
2022-10-17T05:02:32.133Z,99068.22
2022-10-17T05:04:38.227Z,99065.69
2022-10-17T05:06:43.357Z,99065.75
2022-10-17T05:09:09.348Z,99069.47
2022-10-17T05:11:19.849Z,99069.47
2022-10-17T05:13:27.638Z,99070.31
2022-10-17T05:15:32.452Z,99071.22
2022-10-17T05:17:37.291Z,99078.19
2022-10-17T05:19:43.261Z,99068.63
2022-10-17T05:21:48.134Z,99073.94
2022-10-17T05:23:53.206Z,99073.31
2022-10-17T05:25:58.525Z,99079.44
2022-10-17T05:28:04.979Z,99079.59
2022-10-17T05:30:13.435Z,99084.09
2022-10-17T05:32:19.279Z,99079.72
2022-10-17T05:34:28.140Z,99079.72
2022-10-17T05:36:32.968Z,99073.63
2022-10-17T05:38:39.741Z,99085.88
2022-10-17T05:40:45.302Z,99085.03
2022-10-17T05:42:50.922Z,99081.50
2022-10-17T05:44:56.995Z,99083.19
2022-10-17T05:47:04.354Z,99085.81
2022-10-17T05:49:19.556Z,99086.72
2022-10-17T05:51:36.877Z,99094.66
2022-10-17T05:53:44.118Z,99084.94
2022-10-17T05:55:59.384Z,99090.06
2022-10-17T05:58:04.592Z,99086.53
2022-10-17T06:00:15.699Z,99084.75
2022-10-17T06:02:26.553Z,99096.09
2022-10-17T06:04:31.374Z,99097.91
2022-10-17T06:06:36.170Z,99098.72
2022-10-17T06:08:42.016Z,99105.59
2022-10-17T06:10:50.739Z,99107.13
2022-10-17T06:12:56.762Z,99117.47
2022-10-17T06:15:01.874Z,99118.28
2022-10-17T06:17:06.738Z,99124.44
2022-10-17T06:19:14.310Z,99119.91
2022-10-17T06:21:22.430Z,99122.31
2022-10-17T06:23:29.066Z,99120.47
2022-10-17T06:25:38.505Z,99121.22
2022-10-17T06:27:43.391Z,99115.97
2022-10-17T06:29:51.310Z,99124.63
2022-10-17T06:31:56.345Z,99127.13
2022-10-17T06:34:01.911Z,99127.78
2022-10-17T06:36:14.012Z,99126.66
2022-10-17T06:38:19.388Z,99122.19
2022-10-17T06:40:24.530Z,99133.38
2022-10-17T06:42:31.427Z,99130.63
2022-10-17T06:45:02.117Z,99135.88
2022-10-17T06:47:31.681Z,99145.56
2022-10-17T06:49:40.756Z,99144.75
2022-10-17T06:51:59.780Z,99142.22
2022-10-17T06:54:14.067Z,99151.88
2022-10-17T06:56:43.482Z,99152.72
2022-10-17T06:59:07.344Z,99157.03
2022-10-17T07:01:15.388Z,99156.97
2022-10-17T07:03:21.654Z,99157.75
2022-10-17T07:05:27.460Z,99164.69
2022-10-17T07:07:38.893Z,99170.06
2022-10-17T07:09:46.962Z,99167.38
2022-10-17T07:11:53.885Z,99169.81
2022-10-17T07:13:58.686Z,99169.66
2022-10-17T07:16:03.432Z,99173.84
2022-10-17T07:18:09.989Z,99171.00
2022-10-17T07:20:15.015Z,99174.34
2022-10-17T07:22:19.872Z,99165.50
2022-10-17T07:24:32.179Z,99164.50
2022-10-17T07:26:46.361Z,99160.09
2022-10-17T07:28:56.137Z,99156.56
2022-10-17T07:31:22.513Z,99173.06
2022-10-17T07:33:27.415Z,99178.19
2022-10-17T07:35:32.241Z,99178.03
2022-10-17T07:37:37.170Z,99182.28
2022-10-17T07:39:44.514Z,99182.16
2022-10-17T07:41:51.960Z,99181.09
2022-10-17T07:43:57.044Z,99176.91
2022-10-17T07:46:09.187Z,99186.25
2022-10-17T07:48:13.989Z,99172.94
2022-10-17T07:50:19.287Z,99173.56
2022-10-17T07:52:24.180Z,99178.56
2022-10-17T07:54:30.218Z,99182.56
2022-10-17T07:56:37.546Z,99191.78
2022-10-17T07:58:42.907Z,99188.06
2022-10-17T08:00:48.588Z,99185.06
2022-10-17T08:02:53.558Z,99182.06
2022-10-17T08:04:58.306Z,99173.03
2022-10-17T08:07:19.587Z,99171.03
2022-10-17T08:09:29.247Z,99167.25
2022-10-17T08:11:37.318Z,99171.28
2022-10-17T08:13:43.009Z,99175.53
2022-10-17T08:15:47.980Z,99171.59
2022-10-17T08:17:55.583Z,99179.09
2022-10-17T08:20:00.413Z,99174.38
2022-10-17T08:22:05.451Z,99169.75
2022-10-17T08:24:10.403Z,99166.81
2022-10-17T08:26:17.409Z,99176.84
2022-10-17T08:28:24.829Z,99171.97
2022-10-17T08:30:30.939Z,99174.19
2022-10-17T08:32:35.749Z,99172.84
2022-10-17T08:34:40.617Z,99172.41
2022-10-17T08:36:45.395Z,99164.19
2022-10-17T08:38:53.044Z,99173.28
2022-10-17T08:41:00.597Z,99159.75
2022-10-17T08:43:40.706Z,99156.44
2022-10-17T08:45:51.004Z,99156.78
2022-10-17T08:48:00.588Z,99144.81
2022-10-17T08:50:09.706Z,99144.97
2022-10-17T08:52:21.045Z,99140.59
2022-10-17T08:54:35.082Z,99135.59
2022-10-17T08:56:48.979Z,99134.91
2022-10-17T08:58:56.901Z,99135.13
2022-10-17T09:01:13.059Z,99131.75
2022-10-17T09:03:33.322Z,99122.28
2022-10-17T09:05:47.051Z,99124.94
2022-10-17T09:07:59.061Z,99120.53
2022-10-17T09:10:12.037Z,99118.41
2022-10-17T09:12:20.903Z,99111.69
2022-10-17T09:14:48.933Z,99115.13
2022-10-17T09:17:09.116Z,99095.50
2022-10-17T09:19:20.026Z,99096.59
2022-10-17T09:21:30.968Z,99094.19
2022-10-17T09:23:45.443Z,99088.34
2022-10-17T09:25:53.665Z,99087.53
2022-10-17T09:28:05.688Z,99081.84
2022-10-17T09:30:51.560Z,99072.31
2022-10-17T09:32:56.952Z,99081.19
2022-10-17T09:35:01.712Z,99077.81
2022-10-17T09:37:10.117Z,99072.00
2022-10-17T09:39:17.671Z,99073.06
2022-10-17T09:43:49.039Z,99070.41
2022-10-17T09:46:02.770Z,99074.66
2022-10-17T09:48:14.644Z,99080.47
2022-10-17T09:50:26.995Z,99081.53
2022-10-17T09:52:47.632Z,99082.16
2022-10-17T09:54:55.376Z,99079.38
2022-10-17T09:57:01.748Z,99078.44
2022-10-17T09:59:10.327Z,99070.91
2022-10-17T10:01:24.360Z,99068.56
2022-10-17T10:03:30.263Z,99064.66
2022-10-17T10:05:35.139Z,99064.28
2022-10-17T10:07:42.095Z,99070.09
2022-10-17T10:09:50.238Z,99064.81
2022-10-17T10:11:58.133Z,99062.53
2022-10-17T10:14:15.070Z,99062.53
2022-10-17T10:16:27.026Z,99057.72
2022-10-17T10:18:34.841Z,99067.16
2022-10-17T10:20:41.784Z,99068.94
2022-10-17T10:22:46.615Z,99058.84
2022-10-17T10:25:11.021Z,99058.13
2022-10-17T10:27:19.030Z,99060.56
2022-10-17T10:29:32.685Z,99062.03
2022-10-17T10:31:42.464Z,99052.16
2022-10-17T10:33:50.502Z,99046.75
2022-10-17T10:36:02.120Z,99044.22
2022-10-17T10:38:13.657Z,99045.69
2022-10-17T10:40:20.963Z,99042.47
2022-10-17T10:42:35.456Z,99034.00
2022-10-17T10:44:42.617Z,99035.00
2022-10-17T10:46:50.236Z,99033.75
2022-10-17T10:48:59.657Z,99036.56
2022-10-17T10:51:08.537Z,99031.53
2022-10-17T10:53:32.822Z,99024.41
2022-10-17T10:55:46.765Z,99034.31
2022-10-17T10:57:54.707Z,99024.34
2022-10-17T11:00:06.754Z,99025.78
2022-10-17T11:02:22.073Z,99026.38
2022-10-17T11:04:32.132Z,99023.38
2022-10-17T11:06:40.043Z,99018.69
2022-10-17T11:08:51.116Z,99022.66
2022-10-17T11:11:07.467Z,99023.06
2022-10-17T11:13:18.136Z,99017.53
2022-10-17T11:15:29.827Z,99021.50
2022-10-17T11:17:42.613Z,99013.31
2022-10-17T11:19:53.862Z,99024.16
2022-10-17T11:22:11.820Z,99017.03
2022-10-17T11:24:24.297Z,99015.72
2022-10-17T11:26:31.766Z,99008.34
2022-10-17T11:28:36.828Z,99002.78
2022-10-17T11:30:48.313Z,99004.59
2022-10-17T11:32:59.981Z,99005.19
2022-10-17T11:35:09.858Z,99001.72
2022-10-17T11:37:20.263Z,99004.00
2022-10-17T11:39:30.489Z,99010.63
2022-10-17T11:41:43.386Z,99014.25
2022-10-17T11:43:55.672Z,99013.88
2022-10-17T11:46:05.785Z,99011.72
2022-10-17T11:48:20.307Z,99001.84
2022-10-17T11:53:00.023Z,99003.66
2022-10-17T11:55:08.628Z,99002.44
2022-10-17T11:57:29.495Z,99000.78
2022-10-17T11:59:51.694Z,99003.28
2022-10-17T12:02:01.645Z,98998.81
2022-10-17T12:04:23.009Z,99003.19
2022-10-17T12:06:45.856Z,98997.16
2022-10-17T12:08:58.178Z,99006.19
2022-10-17T12:11:07.962Z,99000.88
2022-10-17T12:13:42.918Z,99001.59
2022-10-17T12:15:47.802Z,98998.13
2022-10-17T12:18:00.484Z,98996.66
2022-10-17T12:20:30.612Z,99001.47
2022-10-17T12:22:36.523Z,98998.81
2022-10-17T12:24:44.771Z,99004.00
2022-10-17T12:26:49.582Z,98995.91
2022-10-17T12:28:54.267Z,99008.72
2022-10-17T12:31:02.567Z,99007.59
2022-10-17T12:33:21.937Z,98996.75
2022-10-17T12:35:31.275Z,98990.34
2022-10-17T12:38:16.745Z,98990.97
2022-10-17T12:40:52.901Z,98982.75
2022-10-17T12:42:57.994Z,98981.03
2022-10-17T12:45:02.874Z,98975.16
2022-10-17T12:47:32.213Z,98977.31
2022-10-17T12:49:43.236Z,98973.34
2022-10-17T12:52:30.176Z,98970.56
2022-10-17T12:54:47.709Z,98966.47
2022-10-17T12:56:58.552Z,98972.00
2022-10-17T12:59:03.750Z,98971.88
2022-10-17T13:01:23.731Z,98966.09
2022-10-17T13:03:33.561Z,98968.41
2022-10-17T13:05:40.359Z,98972.72
2022-10-17T13:07:49.209Z,98965.50
2022-10-17T13:09:56.656Z,98968.97
2022-10-17T13:12:03.636Z,98964.38
2022-10-17T13:14:15.043Z,98965.09
2022-10-17T13:16:32.257Z,98961.59
2022-10-17T13:18:37.157Z,98963.53
2022-10-17T13:20:41.938Z,98961.00
2022-10-17T13:22:48.370Z,98963.66
2022-10-17T13:25:07.549Z,98973.19
2022-10-17T13:27:27.004Z,98976.69
2022-10-17T13:29:33.066Z,98979.59
2022-10-17T13:31:39.204Z,98999.03
2022-10-17T13:33:44.429Z,98995.38
2022-10-17T13:36:06.421Z,98990.81
2022-10-17T13:38:11.247Z,98999.59
2022-10-17T13:40:49.144Z,98989.81
2022-10-17T13:42:50.561Z,98992.47
2022-10-17T13:44:55.670Z,98985.25
2022-10-17T13:47:00.790Z,98993.00
2022-10-17T13:49:14.582Z,98991.06
2022-10-17T13:51:19.604Z,98993.00
2022-10-17T13:53:28.713Z,98996.13
2022-10-17T13:55:36.115Z,98985.25
2022-10-17T13:57:40.814Z,98996.84
2022-10-17T13:59:47.785Z,98990.56
2022-10-17T14:01:53.482Z,98995.78
2022-10-17T14:04:08.839Z,98993.81
2022-10-17T14:06:19.458Z,98995.38
2022-10-17T14:08:28.302Z,99001.69
2022-10-17T14:10:38.207Z,99003.50
2022-10-17T14:12:50.311Z,99000.84
2022-10-17T14:15:10.161Z,98997.44
2022-10-17T14:17:17.199Z,98993.81
2022-10-17T14:19:28.889Z,98992.03
2022-10-17T14:21:43.738Z,99002.66
2022-10-17T14:23:49.089Z,99003.13
2022-10-17T14:26:11.736Z,99004.00
2022-10-17T14:28:18.609Z,99003.13
2022-10-17T14:30:55.785Z,99005.78
2022-10-17T14:33:03.962Z,99003.38
2022-10-17T14:35:37.142Z,99006.91
2022-10-17T14:37:43.374Z,99009.66
2022-10-17T14:39:55.140Z,99011.47
2022-10-17T14:42:04.594Z,99008.09
2022-10-17T14:44:16.876Z,99015.94
2022-10-17T14:46:21.670Z,99016.88
2022-10-17T14:48:27.820Z,99013.53
2022-10-17T14:50:36.261Z,99015.31
2022-10-17T14:52:43.166Z,99025.94
2022-10-17T14:54:49.226Z,99014.72
2022-10-17T14:56:56.058Z,99026.09
2022-10-17T14:59:07.555Z,99018.94
2022-10-17T15:01:15.958Z,99021.84
2022-10-17T15:03:21.033Z,99024.50
2022-10-17T15:05:26.079Z,99022.84
2022-10-17T15:07:30.595Z,99026.81
2022-10-17T15:09:35.602Z,99027.06
2022-10-17T15:11:40.125Z,99023.19
2022-10-17T15:13:45.828Z,99022.34
2022-10-17T15:15:53.895Z,99024.03
2022-10-17T15:17:58.660Z,99029.22
2022-10-17T15:20:03.528Z,99032.00
2022-10-17T15:22:08.281Z,99027.66
2022-10-17T15:24:13.963Z,99032.22
2022-10-17T15:26:20.727Z,99033.22
2022-10-17T15:28:27.414Z,99033.34
2022-10-17T15:30:34.562Z,99032.38
2022-10-17T15:32:41.945Z,99030.78
2022-10-17T15:34:47.230Z,99043.22
2022-10-17T15:36:54.115Z,99036.09
2022-10-17T15:39:02.906Z,99036.00
2022-10-17T15:41:07.856Z,99033.44
2022-10-17T15:43:15.016Z,99036.34
2022-10-17T15:45:23.839Z,99040.06
2022-10-17T15:47:34.009Z,99038.50
2022-10-17T15:49:41.819Z,99043.06
2022-10-17T15:51:48.511Z,99047.78
2022-10-17T15:53:55.258Z,99050.69
2022-10-17T15:56:01.471Z,99049.34
2022-10-17T15:58:08.854Z,99052.38
2022-10-17T16:00:17.508Z,99056.66
2022-10-17T16:02:23.920Z,99061.44
2022-10-17T16:04:30.743Z,99067.22
2022-10-17T16:06:38.104Z,99066.84
2022-10-17T16:08:42.862Z,99072.38
2022-10-17T16:10:47.670Z,99079.00
2022-10-17T16:12:52.543Z,99085.50
2022-10-17T16:14:57.814Z,99090.53
2022-10-17T16:17:03.234Z,99097.44
2022-10-17T16:19:08.329Z,99097.28
2022-10-17T16:21:13.199Z,99105.06
2022-10-17T16:23:20.667Z,99116.94
2022-10-17T16:25:27.256Z,99111.94
2022-10-17T16:27:32.005Z,99109.53
2022-10-17T16:29:36.806Z,99110.59
2022-10-17T16:31:44.632Z,99114.94
2022-10-17T16:33:49.466Z,99119.38
2022-10-17T16:35:54.506Z,99114.22
2022-10-17T16:37:59.231Z,99112.72
2022-10-17T16:40:07.493Z,99114.75
2022-10-17T16:42:12.484Z,99115.94
2022-10-17T16:44:18.035Z,99125.03
2022-10-17T16:46:23.646Z,99127.19
2022-10-17T16:48:30.413Z,99125.91
2022-10-17T16:50:35.947Z,99134.50
2022-10-17T16:52:40.773Z,99138.56
2022-10-17T16:54:45.676Z,99139.16
2022-10-17T16:56:53.074Z,99141.31
2022-10-17T16:58:58.013Z,99143.31
2022-10-17T17:01:03.384Z,99150.03
2022-10-17T17:03:08.192Z,99152.06
2022-10-17T17:05:13.334Z,99150.59
2022-10-17T17:07:18.609Z,99149.84
2022-10-17T17:09:23.497Z,99150.13
2022-10-17T17:11:32.488Z,99150.34
2022-10-17T17:13:41.183Z,99153.31
2022-10-17T17:18:12.280Z,99157.72
2022-10-17T17:20:17.437Z,99158.91
2022-10-17T17:22:21.950Z,99161.31
2022-10-17T17:24:26.846Z,99160.66
2022-10-17T17:26:32.784Z,99160.28
2022-10-17T17:28:41.622Z,99166.53
2022-10-17T17:30:46.470Z,99161.38
2022-10-17T17:32:51.306Z,99163.16
2022-10-17T17:34:56.048Z,99153.53
2022-10-17T17:37:00.799Z,99162.50
2022-10-17T17:39:08.101Z,99159.22
2022-10-17T17:41:14.715Z,99168.31
2022-10-17T17:43:19.522Z,99178.41
2022-10-17T17:45:26.844Z,99182.25
2022-10-17T17:47:32.029Z,99186.91
2022-10-17T17:49:37.019Z,99186.34
2022-10-17T17:51:46.110Z,99188.34
2022-10-17T17:53:52.587Z,99192.97
2022-10-17T17:56:04.973Z,99206.38
2022-10-17T17:58:12.523Z,99209.22
2022-10-17T18:00:17.814Z,99213.72
2022-10-17T18:02:25.580Z,99223.72
2022-10-17T18:04:30.537Z,99227.59
2022-10-17T18:06:35.586Z,99231.47
2022-10-17T18:08:40.376Z,99230.06
2022-10-17T18:10:50.734Z,99230.34
2022-10-17T18:12:55.490Z,99235.06
2022-10-17T18:15:00.246Z,99246.75
2022-10-17T18:17:05.011Z,99259.44
2022-10-17T18:19:14.453Z,99258.78
2022-10-17T18:21:20.013Z,99267.00
2022-10-17T18:23:25.629Z,99268.03
2022-10-17T18:25:30.388Z,99264.72
2022-10-17T18:27:35.253Z,99261.22
2022-10-17T18:29:40.304Z,99264.81
2022-10-17T18:31:45.258Z,99270.16
2022-10-17T18:33:50.290Z,99272.91
2022-10-17T18:36:02.352Z,99279.31
2022-10-17T18:38:09.695Z,99276.91
2022-10-17T18:40:15.445Z,99281.41
2022-10-17T18:42:20.561Z,99281.34
2022-10-17T18:44:28.581Z,99275.22
2022-10-17T18:46:38.987Z,99278.03
2022-10-17T18:48:45.363Z,99279.97
2022-10-17T18:50:50.076Z,99281.78
2022-10-17T18:52:57.555Z,99284.53
2022-10-17T18:55:02.604Z,99281.31
2022-10-17T18:57:07.483Z,99283.34
2022-10-17T18:59:12.446Z,99288.91
2022-10-17T19:01:20.136Z,99286.41
2022-10-17T19:03:24.937Z,99283.13
2022-10-17T19:05:34.189Z,99281.31
2022-10-17T19:07:38.969Z,99278.88
2022-10-17T19:09:46.313Z,99274.53
2022-10-17T19:11:51.130Z,99284.31
2022-10-17T19:13:56.581Z,99286.22
2022-10-17T19:16:01.343Z,99289.88
2022-10-17T19:18:06.147Z,99290.88
2022-10-17T19:20:12.729Z,99292.75
2022-10-17T19:22:17.458Z,99294.78
2022-10-17T19:24:23.991Z,99294.13
2022-10-17T19:26:35.001Z,99294.31
2022-10-17T19:28:42.166Z,99298.06
2022-10-17T19:30:47.109Z,99302.56
2022-10-17T19:32:51.917Z,99299.25
2022-10-17T19:34:56.721Z,99305.53
2022-10-17T19:37:01.691Z,99308.41
2022-10-17T19:39:08.811Z,99306.91
2022-10-17T19:41:15.389Z,99311.38
2022-10-17T19:43:22.941Z,99306.28
2022-10-17T19:45:27.868Z,99309.88
2022-10-17T19:47:32.743Z,99314.28
2022-10-17T19:49:37.485Z,99310.09
2022-10-17T19:51:42.592Z,99313.69
2022-10-17T19:53:47.974Z,99307.56
2022-10-17T19:55:52.836Z,99302.44
2022-10-17T19:57:59.256Z,99311.25
2022-10-17T20:00:07.779Z,99311.25
2022-10-17T20:02:16.401Z,99308.78
2022-10-17T20:04:22.018Z,99323.06
2022-10-17T20:06:26.889Z,99318.88
2022-10-17T20:08:31.690Z,99316.69
2022-10-17T20:10:38.634Z,99326.84
2022-10-17T20:12:43.398Z,99328.19
2022-10-17T20:14:48.197Z,99332.84
2022-10-17T20:16:56.968Z,99331.22
2022-10-17T20:19:06.797Z,99334.78
2022-10-17T20:21:13.889Z,99335.72
2022-10-17T20:23:18.745Z,99338.28
2022-10-17T20:25:23.548Z,99345.22
2022-10-17T20:27:28.554Z,99343.53
2022-10-17T20:29:33.288Z,99348.03
2022-10-17T20:31:38.021Z,99349.81
2022-10-17T20:33:45.708Z,99344.47
2022-10-17T20:35:50.594Z,99344.38
2022-10-17T20:37:55.615Z,99344.56
2022-10-17T20:40:29.560Z,99342.09
2022-10-17T20:42:26.346Z,99342.25
2022-10-17T20:44:31.107Z,99347.50
2022-10-17T20:46:37.788Z,99355.47
2022-10-17T20:48:47.169Z,99352.94
2022-10-17T20:50:52.866Z,99348.56
2022-10-17T20:53:18.503Z,99346.03
2022-10-17T20:55:22.457Z,99347.81
2022-10-17T20:57:27.429Z,99351.19
2022-10-17T20:59:32.547Z,99353.31
2022-10-17T21:01:38.330Z,99352.69
2022-10-17T21:03:46.421Z,99352.94
2022-10-17T21:05:54.256Z,99354.78
2022-10-17T21:07:59.106Z,99347.91
2022-10-17T21:10:24.016Z,99355.00
2022-10-17T21:12:36.868Z,99353.31
2022-10-17T21:14:47.844Z,99356.88
2022-10-17T21:16:53.135Z,99354.41
2022-10-17T21:18:58.795Z,99359.81
2022-10-17T21:21:15.083Z,99354.63
2022-10-17T21:23:19.863Z,99366.31
2022-10-17T21:25:24.608Z,99358.53
2022-10-17T21:27:32.486Z,99360.31
2022-10-17T21:29:37.180Z,99352.44
2022-10-17T21:31:43.436Z,99359.38
2022-10-17T21:33:50.544Z,99355.91
2022-10-17T21:35:57.640Z,99362.84
2022-10-17T21:38:05.764Z,99351.47
2022-10-17T21:40:12.022Z,99357.59
2022-10-17T21:42:16.767Z,99349.03
2022-10-17T21:44:23.053Z,99343.13
2022-10-17T21:46:32.478Z,99351.00
2022-10-17T21:48:37.326Z,99345.84
2022-10-17T21:50:42.032Z,99346.75
2022-10-17T21:52:46.949Z,99341.59
2022-10-17T21:54:54.248Z,99341.66
2022-10-17T21:56:58.976Z,99341.75
2022-10-17T21:59:04.002Z,99336.41
2022-10-17T22:01:10.953Z,99338.28
2022-10-17T22:03:16.939Z,99342.59
2022-10-17T22:05:21.830Z,99339.97
2022-10-17T22:07:26.688Z,99343.53
2022-10-17T22:09:31.585Z,99338.56
2022-10-17T22:11:39.197Z,99341.25
2022-10-17T22:13:44.298Z,99347.47
2022-10-17T22:15:49.035Z,99346.63
2022-10-17T22:17:53.849Z,99354.50
2022-10-17T22:19:58.647Z,99343.19
2022-10-17T22:22:03.410Z,99343.25
2022-10-17T22:24:10.377Z,99342.72
2022-10-17T22:26:15.853Z,99348.91
2022-10-17T22:28:23.250Z,99341.09
2022-10-17T22:30:29.823Z,99339.53
2022-10-17T22:32:34.584Z,99349.97
2022-10-17T22:34:39.349Z,99349.91
2022-10-17T22:36:44.851Z,99356.84
2022-10-17T22:38:49.652Z,99352.59
2022-10-17T22:40:54.392Z,99354.38
2022-10-17T22:42:59.301Z,99339.53
2022-10-17T22:45:07.600Z,99343.94
2022-10-17T22:47:12.388Z,99337.97
2022-10-17T22:49:17.197Z,99339.84
2022-10-17T22:51:22.023Z,99342.63
2022-10-17T22:53:27.613Z,99340.13
2022-10-17T22:55:32.392Z,99343.66
2022-10-17T22:57:37.207Z,99348.91
2022-10-17T22:59:41.978Z,99347.13
2022-10-17T23:01:49.427Z,99351.50
2022-10-17T23:03:55.418Z,99338.34
2022-10-17T23:06:00.300Z,99337.50
2022-10-17T23:08:05.079Z,99334.94
2022-10-17T23:10:10.899Z,99328.91
2022-10-17T23:12:15.642Z,99323.75
2022-10-17T23:14:20.611Z,99333.47
2022-10-17T23:16:26.590Z,99323.03
2022-10-17T23:18:33.919Z,99323.03
2022-10-17T23:20:39.399Z,99326.66
2022-10-17T23:22:44.118Z,99331.91
2022-10-17T23:24:48.853Z,99329.34
2022-10-17T23:26:53.681Z,99325.03
2022-10-17T23:28:58.452Z,99320.75
2022-10-17T23:31:11.689Z,99329.50
2022-10-17T23:33:16.955Z,99321.84
2022-10-17T23:35:24.036Z,99319.56
2022-10-17T23:37:32.207Z,99323.34
2022-10-17T23:39:37.062Z,99325.97
2022-10-17T23:41:42.231Z,99327.72
2022-10-17T23:43:46.913Z,99320.16
2022-10-17T23:45:51.970Z,99329.91
2022-10-17T23:47:56.672Z,99329.00
2022-10-17T23:50:01.455Z,99330.84
2022-10-17T23:52:08.923Z,99330.94
2022-10-17T23:54:13.673Z,99327.56
2022-10-17T23:56:18.913Z,99324.91
2022-10-17T23:58:23.685Z,99326.81
